Tokuyo Maru No.11 — JL6131 — position and weather

sailwx.info

Track history (hours):
 
Tides and Currents Weather Stations Pressure Air Temp Water Temp Dewpoint Dewpoint Depression Visibility Wind Speed Wind Dir Waves Ship Positions

Tokuyo Maru No.11

Last reported at 2018-Feb-22 22:21 UTC. Time now 2018-Feb-23 02:42 UTC.
Position N 34°02' E 131°44'.

Length 65 m; draft 4 m.

Type: Tanker. MMSI: 431500038.

Date/timePositionNaut miles runAvg speedWind from/ knotsBaromVisibWave heightAir tempDewpointWater temp
2018-Feb-22 22:21N 34°02' E 131°44'  
2018-Feb-20 00:15N 34°01' E 131°46'311.3
2018-Feb-20 00:00N 33°58' E 131°45'4510.5
2018-Feb-19 19:43N 33°55' E 132°39'314.0
2018-Feb-19 19:30N 33°57' E 132°42'10610.3
2018-Feb-19 09:11N 34°04' E 134°49'811.3
2018-Feb-19 08:29N 33°58' E 134°55'  
2018-Feb-15 18:26N 34°48' E 139°16'511.9
2018-Feb-15 17:59N 34°45' E 139°11'511.0
2018-Feb-15 17:30N 34°41' E 139°07'710.7
2018-Feb-15 16:52N 34°37' E 138°60'20310.2
2018-Feb-14 21:04N 33°58' E 134°59'111.7
2018-Feb-14 20:56N 33°59' E 134°59'511.4
2018-Feb-14 20:30N 34°04' E 134°58'611.5
2018-Feb-14 20:01N 34°10' E 134°57'612.0
2018-Feb-14 19:31N 34°16' E 134°58'611.7
2018-Feb-14 19:00N 34°22' E 134°60'612.0
2018-Feb-14 18:30N 34°27' E 135°01'612.0
2018-Feb-14 18:01N 34°33' E 135°03'510.2
2018-Feb-14 17:30N 34°37' E 134°58'714.6
2018-Feb-14 17:00N 34°33' E 134°50'912.7
2018-Feb-14 16:18N 34°30' E 134°40'412.4
2018-Feb-14 16:00N 34°28' E 134°36'9511.2
2018-Feb-14 07:34N 34°01' E 132°46'111.5
2018-Feb-14 07:27N 34°00' E 132°45'510.8
2018-Feb-14 07:00N 33°56' E 132°41'3211.0
2018-Feb-14 04:07N 33°46' E 132°05'  
Track history (hours):
 
Tides and Currents Weather Stations Pressure Air Temp Water Temp Dewpoint Dewpoint Depression Visibility Wind Speed Wind Dir Waves Ship Positions

Tokuyo Maru No.11

Last reported at 2018-Feb-22 22:21 UTC. Time now 2018-Feb-23 02:42 UTC.
Position N 34°02' E 131°44'.

Length 65 m; draft 4 m.

Type: Tanker. MMSI: 431500038.

Date/timePositionNaut miles runAvg speedWind from/ knotsBaromVisibWave heightAir tempDewpointWater temp
2018-Feb-22 22:21N 34°02' E 131°44'  
2018-Feb-20 00:15N 34°01' E 131°46'311.3
2018-Feb-20 00:00N 33°58' E 131°45'4510.5
2018-Feb-19 19:43N 33°55' E 132°39'314.0
2018-Feb-19 19:30N 33°57' E 132°42'10610.3
2018-Feb-19 09:11N 34°04' E 134°49'811.3
2018-Feb-19 08:29N 33°58' E 134°55'  
2018-Feb-15 18:26N 34°48' E 139°16'511.9
2018-Feb-15 17:59N 34°45' E 139°11'511.0
2018-Feb-15 17:30N 34°41' E 139°07'710.7
2018-Feb-15 16:52N 34°37' E 138°60'20310.2
2018-Feb-14 21:04N 33°58' E 134°59'111.7
2018-Feb-14 20:56N 33°59' E 134°59'511.4
2018-Feb-14 20:30N 34°04' E 134°58'611.5
2018-Feb-14 20:01N 34°10' E 134°57'612.0
2018-Feb-14 19:31N 34°16' E 134°58'611.7
2018-Feb-14 19:00N 34°22' E 134°60'612.0
2018-Feb-14 18:30N 34°27' E 135°01'612.0
2018-Feb-14 18:01N 34°33' E 135°03'510.2
2018-Feb-14 17:30N 34°37' E 134°58'714.6
2018-Feb-14 17:00N 34°33' E 134°50'912.7
2018-Feb-14 16:18N 34°30' E 134°40'412.4
2018-Feb-14 16:00N 34°28' E 134°36'9511.2
2018-Feb-14 07:34N 34°01' E 132°46'111.5
2018-Feb-14 07:27N 34°00' E 132°45'510.8
2018-Feb-14 07:00N 33°56' E 132°41'3211.0
2018-Feb-14 04:07N 33°46' E 132°05'  

Dump ship's entire track history